sensor_id;sensor_type;location;lat;lon;timestamp;temperature;humidity
14095;DHT22;18096;48.142;16.290;2023-02-01T00:01:32;5.10;99.90
14095;DHT22;18096;48.142;16.290;2023-02-01T00:03:58;5.10;99.90
14095;DHT22;18096;48.142;16.290;2023-02-01T00:06:24;5.10;99.90
14095;DHT22;18096;48.142;16.290;2023-02-01T00:08:53;5.10;99.90
14095;DHT22;18096;48.142;16.290;2023-02-01T00:11:20;5.20;99.90
14095;DHT22;18096;48.142;16.290;2023-02-01T00:13:46;5.20;99.90
14095;DHT22;18096;48.142;16.290;2023-02-01T00:18:38;5.20;99.90
14095;DHT22;18096;48.142;16.290;2023-02-01T00:21:04;5.20;99.90
14095;DHT22;18096;48.142;16.290;2023-02-01T00:23:34;5.20;99.90
14095;DHT22;18096;48.142;16.290;2023-02-01T00:26:05;5.20;99.90
14095;DHT22;18096;48.142;16.290;2023-02-01T00:28:31;5.20;99.90
14095;DHT22;18096;48.142;16.290;2023-02-01T00:31:01;5.20;99.90
14095;DHT22;18096;48.142;16.290;2023-02-01T00:33:28;5.30;99.90
14095;DHT22;18096;48.142;16.290;2023-02-01T00:36:05;5.30;99.90
14095;DHT22;18096;48.142;16.290;2023-02-01T00:38:33;5.30;99.90
14095;DHT22;18096;48.142;16.290;2023-02-01T00:41:04;5.30;99.90
14095;DHT22;18096;48.142;16.290;2023-02-01T00:43:31;5.30;99.90
14095;DHT22;18096;48.142;16.290;2023-02-01T00:45:57;5.30;99.90
14095;DHT22;18096;48.142;16.290;2023-02-01T00:48:24;5.40;99.90
14095;DHT22;18096;48.142;16.290;2023-02-01T00:50:50;5.40;99.90
14095;DHT22;18096;48.142;16.290;2023-02-01T00:53:15;5.40;99.90
14095;DHT22;18096;48.142;16.290;2023-02-01T00:55:45;5.40;99.90
14095;DHT22;18096;48.142;16.290;2023-02-01T00:58:11;5.40;99.90
14095;DHT22;18096;48.142;16.290;2023-02-01T01:00:37;5.50;99.90
14095;DHT22;18096;48.142;16.290;2023-02-01T01:03:02;5.50;99.90
14095;DHT22;18096;48.142;16.290;2023-02-01T01:05:46;5.50;99.90
14095;DHT22;18096;48.142;16.290;2023-02-01T01:08:13;5.50;99.90
14095;DHT22;18096;48.142;16.290;2023-02-01T01:10:39;5.50;99.90
14095;DHT22;18096;48.142;16.290;2023-02-01T01:13:04;5.60;99.90
14095;DHT22;18096;48.142;16.290;2023-02-01T01:15:30;5.60;99.90
14095;DHT22;18096;48.142;16.290;2023-02-01T01:17:56;5.60;99.90
14095;DHT22;18096;48.142;16.290;2023-02-01T01:20:22;5.60;99.90
14095;DHT22;18096;48.142;16.290;2023-02-01T01:22:48;5.60;99.90
14095;DHT22;18096;48.142;16.290;2023-02-01T01:25:14;5.60;99.90
14095;DHT22;18096;48.142;16.290;2023-02-01T01:27:40;5.60;99.90
14095;DHT22;18096;48.142;16.290;2023-02-01T01:30:06;5.60;99.90
14095;DHT22;18096;48.142;16.290;2023-02-01T01:32:32;5.70;99.90
14095;DHT22;18096;48.142;16.290;2023-02-01T01:34:57;5.60;99.90
14095;DHT22;18096;48.142;16.290;2023-02-01T01:37:23;5.60;99.90
14095;DHT22;18096;48.142;16.290;2023-02-01T01:39:48;5.60;99.90
14095;DHT22;18096;48.142;16.290;2023-02-01T01:42:14;5.70;99.90
14095;DHT22;18096;48.142;16.290;2023-02-01T01:45:03;5.70;99.90
14095;DHT22;18096;48.142;16.290;2023-02-01T01:47:34;5.60;99.90
14095;DHT22;18096;48.142;16.290;2023-02-01T01:50:02;5.60;99.90
14095;DHT22;18096;48.142;16.290;2023-02-01T01:52:29;5.60;99.90
14095;DHT22;18096;48.142;16.290;2023-02-01T01:54:55;5.70;99.90
14095;DHT22;18096;48.142;16.290;2023-02-01T01:57:30;5.60;99.90
14095;DHT22;18096;48.142;16.290;2023-02-01T02:00:14;5.70;99.90
14095;DHT22;18096;48.142;16.290;2023-02-01T02:02:43;5.60;99.90
14095;DHT22;18096;48.142;16.290;2023-02-01T02:05:10;5.60;99.90
14095;DHT22;18096;48.142;16.290;2023-02-01T02:07:40;5.60;99.90
14095;DHT22;18096;48.142;16.290;2023-02-01T02:10:10;5.60;99.90
14095;DHT22;18096;48.142;16.290;2023-02-01T02:12:39;5.60;99.90
14095;DHT22;18096;48.142;16.290;2023-02-01T02:15:06;5.60;99.90
14095;DHT22;18096;48.142;16.290;2023-02-01T02:18:01;5.60;99.90
14095;DHT22;18096;48.142;16.290;2023-02-01T02:29:00;5.70;99.90
14095;DHT22;18096;48.142;16.290;2023-02-01T02:31:51;5.70;99.90
14095;DHT22;18096;48.142;16.290;2023-02-01T02:40:35;5.60;99.90
14095;DHT22;18096;48.142;16.290;2023-02-01T02:43:01;5.70;99.90
14095;DHT22;18096;48.142;16.290;2023-02-01T02:45:54;5.60;99.90
14095;DHT22;18096;48.142;16.290;2023-02-01T02:48:46;5.70;99.90
14095;DHT22;18096;48.142;16.290;2023-02-01T02:51:23;5.60;99.90
14095;DHT22;18096;48.142;16.290;2023-02-01T02:54:24;5.60;99.90
14095;DHT22;18096;48.142;16.290;2023-02-01T02:57:13;5.60;99.90
14095;DHT22;18096;48.142;16.290;2023-02-01T03:00:02;5.60;99.90
14095;DHT22;18096;48.142;16.290;2023-02-01T03:02:47;5.60;99.90
14095;DHT22;18096;48.142;16.290;2023-02-01T03:05:37;5.60;99.90
14095;DHT22;18096;48.142;16.290;2023-02-01T03:08:15;5.60;99.90
14095;DHT22;18096;48.142;16.290;2023-02-01T03:11:04;5.60;99.90
14095;DHT22;18096;48.142;16.290;2023-02-01T03:13:53;5.50;99.90
14095;DHT22;18096;48.142;16.290;2023-02-01T03:16:28;5.50;99.90
14095;DHT22;18096;48.142;16.290;2023-02-01T03:21:43;5.50;99.90
14095;DHT22;18096;48.142;16.290;2023-02-01T03:24:21;5.50;99.90
14095;DHT22;18096;48.142;16.290;2023-02-01T03:26:55;5.50;99.90
14095;DHT22;18096;48.142;16.290;2023-02-01T03:32:15;5.50;99.90
14095;DHT22;18096;48.142;16.290;2023-02-01T03:34:42;5.50;99.90
14095;DHT22;18096;48.142;16.290;2023-02-01T03:37:13;5.50;99.90
14095;DHT22;18096;48.142;16.290;2023-02-01T03:39:59;5.50;99.90
14095;DHT22;18096;48.142;16.290;2023-02-01T03:42:40;5.50;99.90
14095;DHT22;18096;48.142;16.290;2023-02-01T03:45:28;5.50;99.90
14095;DHT22;18096;48.142;16.290;2023-02-01T03:47:56;5.50;99.90
14095;DHT22;18096;48.142;16.290;2023-02-01T03:50:26;5.50;99.90
14095;DHT22;18096;48.142;16.290;2023-02-01T03:53:11;5.50;99.90
14095;DHT22;18096;48.142;16.290;2023-02-01T03:55:41;5.60;99.90
14095;DHT22;18096;48.142;16.290;2023-02-01T03:58:18;5.60;99.90
14095;DHT22;18096;48.142;16.290;2023-02-01T04:00:58;5.60;99.90
14095;DHT22;18096;48.142;16.290;2023-02-01T04:03:24;5.60;99.90
14095;DHT22;18096;48.142;16.290;2023-02-01T04:05:51;5.60;99.90
14095;DHT22;18096;48.142;16.290;2023-02-01T04:08:21;5.60;99.90
14095;DHT22;18096;48.142;16.290;2023-02-01T04:10:47;5.70;99.90
14095;DHT22;18096;48.142;16.290;2023-02-01T04:13:13;5.70;99.90
14095;DHT22;18096;48.142;16.290;2023-02-01T04:15:39;5.70;99.90
14095;DHT22;18096;48.142;16.290;2023-02-01T04:18:05;5.70;99.90
14095;DHT22;18096;48.142;16.290;2023-02-01T04:20:31;5.80;99.90
14095;DHT22;18096;48.142;16.290;2023-02-01T04:22:56;5.80;99.90
14095;DHT22;18096;48.142;16.290;2023-02-01T04:25:22;5.80;99.90
14095;DHT22;18096;48.142;16.290;2023-02-01T04:27:48;5.80;99.90
14095;DHT22;18096;48.142;16.290;2023-02-01T04:30:14;5.80;99.90
14095;DHT22;18096;48.142;16.290;2023-02-01T04:32:39;5.90;99.90
14095;DHT22;18096;48.142;16.290;2023-02-01T04:35:06;5.90;99.90
14095;DHT22;18096;48.142;16.290;2023-02-01T04:37:32;5.90;99.90
14095;DHT22;18096;48.142;16.290;2023-02-01T04:39:58;5.90;99.90
14095;DHT22;18096;48.142;16.290;2023-02-01T04:42:23;5.90;99.90
14095;DHT22;18096;48.142;16.290;2023-02-01T04:44:49;6.00;99.90
14095;DHT22;18096;48.142;16.290;2023-02-01T04:47:15;6.00;99.90
14095;DHT22;18096;48.142;16.290;2023-02-01T04:49:41;6.00;99.90
14095;DHT22;18096;48.142;16.290;2023-02-01T04:52:07;5.90;99.90
14095;DHT22;18096;48.142;16.290;2023-02-01T04:54:33;6.00;99.90
14095;DHT22;18096;48.142;16.290;2023-02-01T04:56:59;6.00;99.90
14095;DHT22;18096;48.142;16.290;2023-02-01T04:59:25;6.00;99.90
14095;DHT22;18096;48.142;16.290;2023-02-01T05:01:50;6.00;99.90
14095;DHT22;18096;48.142;16.290;2023-02-01T05:04:16;6.00;99.90
14095;DHT22;18096;48.142;16.290;2023-02-01T05:06:44;6.00;99.90
14095;DHT22;18096;48.142;16.290;2023-02-01T05:09:09;6.00;99.90
14095;DHT22;18096;48.142;16.290;2023-02-01T05:11:35;6.10;99.90
14095;DHT22;18096;48.142;16.290;2023-02-01T05:14:19;6.00;99.90
14095;DHT22;18096;48.142;16.290;2023-02-01T05:16:45;6.10;99.90
14095;DHT22;18096;48.142;16.290;2023-02-01T05:19:10;6.10;99.90
14095;DHT22;18096;48.142;16.290;2023-02-01T05:21:36;6.10;99.90
14095;DHT22;18096;48.142;16.290;2023-02-01T05:24:02;6.10;99.90
14095;DHT22;18096;48.142;16.290;2023-02-01T05:26:45;6.10;99.90
14095;DHT22;18096;48.142;16.290;2023-02-01T05:29:11;6.10;99.90
14095;DHT22;18096;48.142;16.290;2023-02-01T05:31:38;6.10;99.90
14095;DHT22;18096;48.142;16.290;2023-02-01T05:34:06;6.20;99.90
14095;DHT22;18096;48.142;16.290;2023-02-01T05:36:32;6.20;99.90
14095;DHT22;18096;48.142;16.290;2023-02-01T05:38:57;6.20;99.90
14095;DHT22;18096;48.142;16.290;2023-02-01T05:41:23;6.10;99.90
14095;DHT22;18096;48.142;16.290;2023-02-01T05:43:49;6.20;99.90
14095;DHT22;18096;48.142;16.290;2023-02-01T05:46:15;6.20;99.90
14095;DHT22;18096;48.142;16.290;2023-02-01T05:48:41;6.20;99.90
14095;DHT22;18096;48.142;16.290;2023-02-01T05:51:08;6.20;99.90
14095;DHT22;18096;48.142;16.290;2023-02-01T05:53:34;6.20;99.90
14095;DHT22;18096;48.142;16.290;2023-02-01T05:56:00;6.20;99.90
14095;DHT22;18096;48.142;16.290;2023-02-01T05:58:26;6.20;99.90
14095;DHT22;18096;48.142;16.290;2023-02-01T06:00:52;6.20;99.90
14095;DHT22;18096;48.142;16.290;2023-02-01T06:03:17;6.30;99.90
14095;DHT22;18096;48.142;16.290;2023-02-01T06:05:47;6.30;99.90
14095;DHT22;18096;48.142;16.290;2023-02-01T06:08:13;6.30;99.90
14095;DHT22;18096;48.142;16.290;2023-02-01T06:10:39;6.30;99.90
14095;DHT22;18096;48.142;16.290;2023-02-01T06:13:05;6.30;99.90
14095;DHT22;18096;48.142;16.290;2023-02-01T06:15:31;6.30;99.90
14095;DHT22;18096;48.142;16.290;2023-02-01T06:17:57;6.30;99.90
14095;DHT22;18096;48.142;16.290;2023-02-01T06:20:23;6.30;99.90
14095;DHT22;18096;48.142;16.290;2023-02-01T06:22:49;6.30;99.90
14095;DHT22;18096;48.142;16.290;2023-02-01T06:25:15;6.30;99.90
14095;DHT22;18096;48.142;16.290;2023-02-01T06:27:42;6.30;99.90
14095;DHT22;18096;48.142;16.290;2023-02-01T06:30:10;6.30;99.90
14095;DHT22;18096;48.142;16.290;2023-02-01T06:32:39;6.30;99.90
14095;DHT22;18096;48.142;16.290;2023-02-01T06:35:07;6.30;99.90
14095;DHT22;18096;48.142;16.290;2023-02-01T06:37:33;6.40;99.90
14095;DHT22;18096;48.142;16.290;2023-02-01T06:40:01;6.30;99.90
14095;DHT22;18096;48.142;16.290;2023-02-01T06:42:27;6.40;99.90
14095;DHT22;18096;48.142;16.290;2023-02-01T06:44:52;6.30;99.90
14095;DHT22;18096;48.142;16.290;2023-02-01T06:47:18;6.30;99.90
14095;DHT22;18096;48.142;16.290;2023-02-01T06:49:44;6.40;99.90
14095;DHT22;18096;48.142;16.290;2023-02-01T06:52:09;6.40;99.90
14095;DHT22;18096;48.142;16.290;2023-02-01T06:54:35;6.50;99.90
14095;DHT22;18096;48.142;16.290;2023-02-01T06:57:03;6.40;99.90
14095;DHT22;18096;48.142;16.290;2023-02-01T06:59:28;6.50;99.90
14095;DHT22;18096;48.142;16.290;2023-02-01T07:01:54;6.50;99.90
14095;DHT22;18096;48.142;16.290;2023-02-01T07:04:20;6.50;99.90
14095;DHT22;18096;48.142;16.290;2023-02-01T07:06:45;6.50;99.90
14095;DHT22;18096;48.142;16.290;2023-02-01T07:09:11;6.40;99.90
14095;DHT22;18096;48.142;16.290;2023-02-01T07:11:38;6.40;99.90
14095;DHT22;18096;48.142;16.290;2023-02-01T07:14:11;6.40;99.90
14095;DHT22;18096;48.142;16.290;2023-02-01T07:16:37;6.40;99.90
14095;DHT22;18096;48.142;16.290;2023-02-01T07:19:03;6.40;99.90
14095;DHT22;18096;48.142;16.290;2023-02-01T07:21:28;6.40;99.90
14095;DHT22;18096;48.142;16.290;2023-02-01T07:23:55;6.40;99.90
14095;DHT22;18096;48.142;16.290;2023-02-01T07:26:21;6.40;99.90
14095;DHT22;18096;48.142;16.290;2023-02-01T07:28:47;6.50;99.90
14095;DHT22;18096;48.142;16.290;2023-02-01T07:31:15;6.50;99.90
14095;DHT22;18096;48.142;16.290;2023-02-01T07:33:43;6.50;99.90
14095;DHT22;18096;48.142;16.290;2023-02-01T07:36:12;6.50;99.90
14095;DHT22;18096;48.142;16.290;2023-02-01T07:38:39;6.50;99.90
14095;DHT22;18096;48.142;16.290;2023-02-01T07:41:05;6.50;99.90
14095;DHT22;18096;48.142;16.290;2023-02-01T07:43:31;6.50;99.90
14095;DHT22;18096;48.142;16.290;2023-02-01T07:45:58;6.60;99.90
14095;DHT22;18096;48.142;16.290;2023-02-01T07:48:25;6.50;99.90
14095;DHT22;18096;48.142;16.290;2023-02-01T07:51:03;6.60;99.90
14095;DHT22;18096;48.142;16.290;2023-02-01T07:53:30;6.50;99.90
14095;DHT22;18096;48.142;16.290;2023-02-01T07:55:56;6.50;99.90
14095;DHT22;18096;48.142;16.290;2023-02-01T07:58:23;6.60;99.90
14095;DHT22;18096;48.142;16.290;2023-02-01T08:00:49;6.60;99.90
14095;DHT22;18096;48.142;16.290;2023-02-01T08:03:34;6.60;99.90
14095;DHT22;18096;48.142;16.290;2023-02-01T08:06:00;6.70;99.90
14095;DHT22;18096;48.142;16.290;2023-02-01T08:08:26;6.70;99.90
14095;DHT22;18096;48.142;16.290;2023-02-01T08:10:56;6.70;99.90
14095;DHT22;18096;48.142;16.290;2023-02-01T08:13:22;6.70;99.90
14095;DHT22;18096;48.142;16.290;2023-02-01T08:15:47;6.70;99.90
14095;DHT22;18096;48.142;16.290;2023-02-01T08:18:13;6.70;99.90
14095;DHT22;18096;48.142;16.290;2023-02-01T08:20:41;6.80;99.90
14095;DHT22;18096;48.142;16.290;2023-02-01T08:23:08;6.80;99.90
14095;DHT22;18096;48.142;16.290;2023-02-01T08:25:34;6.80;99.90
14095;DHT22;18096;48.142;16.290;2023-02-01T08:28:02;6.90;99.90
14095;DHT22;18096;48.142;16.290;2023-02-01T08:30:27;6.90;99.90
14095;DHT22;18096;48.142;16.290;2023-02-01T08:32:53;6.90;99.90
14095;DHT22;18096;48.142;16.290;2023-02-01T08:35:19;6.90;99.90
14095;DHT22;18096;48.142;16.290;2023-02-01T08:37:44;7.00;99.90
14095;DHT22;18096;48.142;16.290;2023-02-01T08:40:10;7.00;99.90
14095;DHT22;18096;48.142;16.290;2023-02-01T08:42:36;7.00;99.90
14095;DHT22;18096;48.142;16.290;2023-02-01T08:45:25;7.00;99.90
14095;DHT22;18096;48.142;16.290;2023-02-01T08:47:52;7.10;99.90
14095;DHT22;18096;48.142;16.290;2023-02-01T08:50:18;7.10;99.80
14095;DHT22;18096;48.142;16.290;2023-02-01T08:52:45;7.10;99.50
14095;DHT22;18096;48.142;16.290;2023-02-01T08:55:11;7.10;99.40
14095;DHT22;18096;48.142;16.290;2023-02-01T08:57:37;7.10;99.30
14095;DHT22;18096;48.142;16.290;2023-02-01T09:00:05;7.10;99.10
14095;DHT22;18096;48.142;16.290;2023-02-01T09:02:31;7.10;99.10
14095;DHT22;18096;48.142;16.290;2023-02-01T09:04:57;7.10;99.00
14095;DHT22;18096;48.142;16.290;2023-02-01T09:07:23;7.10;99.00
14095;DHT22;18096;48.142;16.290;2023-02-01T09:09:48;7.10;98.90
14095;DHT22;18096;48.142;16.290;2023-02-01T09:12:14;7.10;99.00
14095;DHT22;18096;48.142;16.290;2023-02-01T09:14:40;7.10;99.10
14095;DHT22;18096;48.142;16.290;2023-02-01T09:17:06;7.10;99.30
14095;DHT22;18096;48.142;16.290;2023-02-01T09:19:32;7.10;99.40
14095;DHT22;18096;48.142;16.290;2023-02-01T09:21:58;7.10;99.50
14095;DHT22;18096;48.142;16.290;2023-02-01T09:24:24;7.10;99.60
14095;DHT22;18096;48.142;16.290;2023-02-01T09:26:49;7.10;99.60
14095;DHT22;18096;48.142;16.290;2023-02-01T09:29:15;7.10;99.70
14095;DHT22;18096;48.142;16.290;2023-02-01T09:31:41;7.10;99.70
14095;DHT22;18096;48.142;16.290;2023-02-01T09:34:07;7.10;99.70
14095;DHT22;18096;48.142;16.290;2023-02-01T09:36:33;7.10;99.80
14095;DHT22;18096;48.142;16.290;2023-02-01T09:38:59;7.20;99.90
14095;DHT22;18096;48.142;16.290;2023-02-01T09:47:04;7.20;99.60
14095;DHT22;18096;48.142;16.290;2023-02-01T09:49:38;7.20;99.60
14095;DHT22;18096;48.142;16.290;2023-02-01T09:52:10;7.20;99.70
14095;DHT22;18096;48.142;16.290;2023-02-01T09:54:56;7.10;99.90
14095;DHT22;18096;48.142;16.290;2023-02-01T10:00:38;7.10;99.90
14095;DHT22;18096;48.142;16.290;2023-02-01T10:03:04;7.20;99.90
14095;DHT22;18096;48.142;16.290;2023-02-01T10:10:45;7.10;99.90
14095;DHT22;18096;48.142;16.290;2023-02-01T10:13:44;7.10;99.90
14095;DHT22;18096;48.142;16.290;2023-02-01T10:16:22;7.10;99.90
14095;DHT22;18096;48.142;16.290;2023-02-01T10:19:16;7.20;99.90
14095;DHT22;18096;48.142;16.290;2023-02-01T10:22:00;7.10;99.90
14095;DHT22;18096;48.142;16.290;2023-02-01T10:27:02;7.20;99.90
14095;DHT22;18096;48.142;16.290;2023-02-01T10:29:37;7.30;99.90
14095;DHT22;18096;48.142;16.290;2023-02-01T10:32:14;7.30;99.90
14095;DHT22;18096;48.142;16.290;2023-02-01T10:34:42;7.30;99.90
14095;DHT22;18096;48.142;16.290;2023-02-01T10:37:30;7.30;99.90
14095;DHT22;18096;48.142;16.290;2023-02-01T10:40:00;7.40;99.90
14095;DHT22;18096;48.142;16.290;2023-02-01T10:42:28;7.40;99.90
14095;DHT22;18096;48.142;16.290;2023-02-01T10:44:57;7.50;99.90
14095;DHT22;18096;48.142;16.290;2023-02-01T10:47:23;7.60;99.90
14095;DHT22;18096;48.142;16.290;2023-02-01T10:52:31;7.60;99.90
14095;DHT22;18096;48.142;16.290;2023-02-01T10:57:59;7.60;99.90
14095;DHT22;18096;48.142;16.290;2023-02-01T11:00:25;7.60;99.90
14095;DHT22;18096;48.142;16.290;2023-02-01T11:02:52;7.50;99.90
14095;DHT22;18096;48.142;16.290;2023-02-01T11:05:18;7.50;99.90
14095;DHT22;18096;48.142;16.290;2023-02-01T11:07:54;7.40;99.90
14095;DHT22;18096;48.142;16.290;2023-02-01T11:10:43;7.30;99.90
14095;DHT22;18096;48.142;16.290;2023-02-01T11:13:18;7.20;99.90
14095;DHT22;18096;48.142;16.290;2023-02-01T11:15:54;7.30;99.90
14095;DHT22;18096;48.142;16.290;2023-02-01T11:18:27;7.30;99.90
14095;DHT22;18096;48.142;16.290;2023-02-01T11:20:53;7.20;99.90
14095;DHT22;18096;48.142;16.290;2023-02-01T11:23:23;7.20;99.90
14095;DHT22;18096;48.142;16.290;2023-02-01T11:25:58;7.20;99.90
14095;DHT22;18096;48.142;16.290;2023-02-01T11:28:31;7.20;99.90
14095;DHT22;18096;48.142;16.290;2023-02-01T11:31:00;7.20;99.90
14095;DHT22;18096;48.142;16.290;2023-02-01T11:33:31;7.20;99.90
14095;DHT22;18096;48.142;16.290;2023-02-01T11:36:07;7.10;99.90
14095;DHT22;18096;48.142;16.290;2023-02-01T11:38:34;7.10;99.90
14095;DHT22;18096;48.142;16.290;2023-02-01T11:41:23;7.00;99.90
14095;DHT22;18096;48.142;16.290;2023-02-01T11:43:55;7.00;99.90
14095;DHT22;18096;48.142;16.290;2023-02-01T11:46:24;7.00;99.90
14095;DHT22;18096;48.142;16.290;2023-02-01T11:48:55;6.90;99.90
14095;DHT22;18096;48.142;16.290;2023-02-01T11:51:39;6.70;99.90
14095;DHT22;18096;48.142;16.290;2023-02-01T11:57:16;6.70;99.90
14095;DHT22;18096;48.142;16.290;2023-02-01T12:11:12;6.80;99.90
14095;DHT22;18096;48.142;16.290;2023-02-01T12:19:29;6.80;99.90
14095;DHT22;18096;48.142;16.290;2023-02-01T12:25:15;6.90;99.90
14095;DHT22;18096;48.142;16.290;2023-02-01T12:28:00;7.00;99.90
14095;DHT22;18096;48.142;16.290;2023-02-01T12:43:14;7.10;99.90
14095;DHT22;18096;48.142;16.290;2023-02-01T12:45:59;7.20;99.90
14095;DHT22;18096;48.142;16.290;2023-02-01T12:51:14;7.40;99.90
14095;DHT22;18096;48.142;16.290;2023-02-01T12:54:11;7.50;99.90
14095;DHT22;18096;48.142;16.290;2023-02-01T12:59:35;7.50;99.90
14095;DHT22;18096;48.142;16.290;2023-02-01T13:05:22;7.50;99.90
14095;DHT22;18096;48.142;16.290;2023-02-01T13:13:48;7.40;99.90
14095;DHT22;18096;48.142;16.290;2023-02-01T13:16:43;7.40;99.90
14095;DHT22;18096;48.142;16.290;2023-02-01T13:19:32;7.40;99.90
14095;DHT22;18096;48.142;16.290;2023-02-01T13:22:07;7.40;99.90
14095;DHT22;18096;48.142;16.290;2023-02-01T13:24:47;7.40;99.90
14095;DHT22;18096;48.142;16.290;2023-02-01T13:27:15;7.40;99.90
14095;DHT22;18096;48.142;16.290;2023-02-01T13:38:22;7.30;99.90
14095;DHT22;18096;48.142;16.290;2023-02-01T13:43:51;7.30;99.90
14095;DHT22;18096;48.142;16.290;2023-02-01T13:46:18;7.30;99.90
14095;DHT22;18096;48.142;16.290;2023-02-01T13:49:02;7.30;99.90
14095;DHT22;18096;48.142;16.290;2023-02-01T13:51:49;7.20;99.90
14095;DHT22;18096;48.142;16.290;2023-02-01T13:54:27;7.20;99.90
14095;DHT22;18096;48.142;16.290;2023-02-01T13:56:54;7.20;99.90
14095;DHT22;18096;48.142;16.290;2023-02-01T14:05:03;7.20;99.90
14095;DHT22;18096;48.142;16.290;2023-02-01T14:07:29;7.20;99.90
14095;DHT22;18096;48.142;16.290;2023-02-01T14:09:55;7.10;99.90
14095;DHT22;18096;48.142;16.290;2023-02-01T14:12:46;7.10;99.90
14095;DHT22;18096;48.142;16.290;2023-02-01T14:15:20;7.00;99.90
14095;DHT22;18096;48.142;16.290;2023-02-01T14:17:48;7.00;99.90
14095;DHT22;18096;48.142;16.290;2023-02-01T14:20:39;7.00;99.90
14095;DHT22;18096;48.142;16.290;2023-02-01T14:23:12;7.00;99.90
14095;DHT22;18096;48.142;16.290;2023-02-01T14:25:39;6.90;99.90
14095;DHT22;18096;48.142;16.290;2023-02-01T14:28:25;7.00;99.90
14095;DHT22;18096;48.142;16.290;2023-02-01T14:30:53;6.90;99.90
14095;DHT22;18096;48.142;16.290;2023-02-01T14:33:24;6.80;99.90
14095;DHT22;18096;48.142;16.290;2023-02-01T14:36:10;6.80;99.90
14095;DHT22;18096;48.142;16.290;2023-02-01T14:38:38;6.80;99.90
14095;DHT22;18096;48.142;16.290;2023-02-01T14:41:31;6.80;99.90
14095;DHT22;18096;48.142;16.290;2023-02-01T14:47:04;6.70;99.90
14095;DHT22;18096;48.142;16.290;2023-02-01T14:49:46;6.70;99.90
14095;DHT22;18096;48.142;16.290;2023-02-01T14:52:17;6.80;99.90
14095;DHT22;18096;48.142;16.290;2023-02-01T14:54:47;6.70;99.90
14095;DHT22;18096;48.142;16.290;2023-02-01T14:57:19;6.70;99.90
14095;DHT22;18096;48.142;16.290;2023-02-01T14:59:45;6.70;99.90
14095;DHT22;18096;48.142;16.290;2023-02-01T15:02:23;6.60;99.90
14095;DHT22;18096;48.142;16.290;2023-02-01T15:04:54;6.50;99.90
14095;DHT22;18096;48.142;16.290;2023-02-01T15:07:22;6.50;99.90
14095;DHT22;18096;48.142;16.290;2023-02-01T15:09:50;6.50;99.90
14095;DHT22;18096;48.142;16.290;2023-02-01T15:12:22;6.50;99.90
14095;DHT22;18096;48.142;16.290;2023-02-01T15:15:18;6.40;99.90
14095;DHT22;18096;48.142;16.290;2023-02-01T15:17:58;6.40;99.90
14095;DHT22;18096;48.142;16.290;2023-02-01T15:20:30;6.40;99.90
14095;DHT22;18096;48.142;16.290;2023-02-01T15:23:02;6.30;99.90
14095;DHT22;18096;48.142;16.290;2023-02-01T15:25:30;6.30;99.90
14095;DHT22;18096;48.142;16.290;2023-02-01T15:27:57;6.30;99.90
14095;DHT22;18096;48.142;16.290;2023-02-01T15:30:26;6.30;99.90
14095;DHT22;18096;48.142;16.290;2023-02-01T15:33:22;6.30;99.90
14095;DHT22;18096;48.142;16.290;2023-02-01T15:35:50;6.30;99.90
14095;DHT22;18096;48.142;16.290;2023-02-01T15:44:02;6.30;99.90
14095;DHT22;18096;48.142;16.290;2023-02-01T15:46:35;6.30;99.90
14095;DHT22;18096;48.142;16.290;2023-02-01T15:49:01;6.30;99.90
14095;DHT22;18096;48.142;16.290;2023-02-01T15:51:30;6.30;99.90
14095;DHT22;18096;48.142;16.290;2023-02-01T15:53:58;6.30;99.90
14095;DHT22;18096;48.142;16.290;2023-02-01T15:56:29;6.30;99.90
14095;DHT22;18096;48.142;16.290;2023-02-01T15:59:00;6.40;99.90
14095;DHT22;18096;48.142;16.290;2023-02-01T16:01:27;6.40;99.90
14095;DHT22;18096;48.142;16.290;2023-02-01T16:04:20;6.30;99.90
14095;DHT22;18096;48.142;16.290;2023-02-01T16:06:57;6.40;99.90
14095;DHT22;18096;48.142;16.290;2023-02-01T16:09:56;6.40;99.90
14095;DHT22;18096;48.142;16.290;2023-02-01T16:12:31;6.40;99.90
14095;DHT22;18096;48.142;16.290;2023-02-01T16:15:00;6.40;99.90
14095;DHT22;18096;48.142;16.290;2023-02-01T16:17:26;6.40;99.90
14095;DHT22;18096;48.142;16.290;2023-02-01T16:19:52;6.40;99.90
14095;DHT22;18096;48.142;16.290;2023-02-01T16:22:18;6.40;99.90
14095;DHT22;18096;48.142;16.290;2023-02-01T16:24:43;6.40;99.90
14095;DHT22;18096;48.142;16.290;2023-02-01T16:27:09;6.40;99.90
14095;DHT22;18096;48.142;16.290;2023-02-01T16:29:35;6.40;99.90
14095;DHT22;18096;48.142;16.290;2023-02-01T16:32:01;6.40;99.90
14095;DHT22;18096;48.142;16.290;2023-02-01T16:34:27;6.40;99.90
14095;DHT22;18096;48.142;16.290;2023-02-01T16:36:52;6.50;99.90
14095;DHT22;18096;48.142;16.290;2023-02-01T16:39:23;6.50;99.90
14095;DHT22;18096;48.142;16.290;2023-02-01T16:41:49;6.40;99.90
14095;DHT22;18096;48.142;16.290;2023-02-01T16:44:16;6.50;99.90
14095;DHT22;18096;48.142;16.290;2023-02-01T16:46:44;6.40;99.90
14095;DHT22;18096;48.142;16.290;2023-02-01T16:49:28;6.50;99.90
14095;DHT22;18096;48.142;16.290;2023-02-01T16:51:57;6.50;99.90
14095;DHT22;18096;48.142;16.290;2023-02-01T16:54:24;6.50;99.90
14095;DHT22;18096;48.142;16.290;2023-02-01T16:56:49;6.50;99.90
14095;DHT22;18096;48.142;16.290;2023-02-01T16:59:15;6.50;99.90
14095;DHT22;18096;48.142;16.290;2023-02-01T17:01:41;6.50;99.90
14095;DHT22;18096;48.142;16.290;2023-02-01T17:04:09;6.50;99.90
14095;DHT22;18096;48.142;16.290;2023-02-01T17:06:36;6.50;99.90
14095;DHT22;18096;48.142;16.290;2023-02-01T17:09:03;6.40;99.90
14095;DHT22;18096;48.142;16.290;2023-02-01T17:11:30;6.50;99.90
14095;DHT22;18096;48.142;16.290;2023-02-01T17:14:16;6.50;99.90
14095;DHT22;18096;48.142;16.290;2023-02-01T17:16:42;6.50;99.90
14095;DHT22;18096;48.142;16.290;2023-02-01T17:19:16;6.50;99.90
14095;DHT22;18096;48.142;16.290;2023-02-01T17:21:51;6.50;99.90
14095;DHT22;18096;48.142;16.290;2023-02-01T17:24:28;6.50;99.90
14095;DHT22;18096;48.142;16.290;2023-02-01T17:26:54;6.50;99.90
14095;DHT22;18096;48.142;16.290;2023-02-01T17:29:20;6.40;99.90
14095;DHT22;18096;48.142;16.290;2023-02-01T17:31:51;6.50;99.90
14095;DHT22;18096;48.142;16.290;2023-02-01T17:34:20;6.50;99.90
14095;DHT22;18096;48.142;16.290;2023-02-01T17:36:47;6.50;99.90
14095;DHT22;18096;48.142;16.290;2023-02-01T17:39:15;6.50;99.90
14095;DHT22;18096;48.142;16.290;2023-02-01T17:42:00;6.50;99.90
14095;DHT22;18096;48.142;16.290;2023-02-01T17:44:27;6.50;99.90
14095;DHT22;18096;48.142;16.290;2023-02-01T17:46:54;6.40;99.90
14095;DHT22;18096;48.142;16.290;2023-02-01T17:49:22;6.40;99.90
14095;DHT22;18096;48.142;16.290;2023-02-01T17:51:48;6.40;99.90
14095;DHT22;18096;48.142;16.290;2023-02-01T17:54:16;6.40;99.90